sensor_id;sensor_type;location;lat;lon;timestamp;P1;durP1;ratioP1;P2;durP2;ratioP2
17199;SDS011;8716;52.268;20.968;2022-08-03T00:01:42;3.50;;;3.30;;
17199;SDS011;8716;52.268;20.968;2022-08-03T00:07:57;3.53;;;3.33;;
17199;SDS011;8716;52.268;20.968;2022-08-03T00:10:28;4.30;;;4.00;;
17199;SDS011;8716;52.268;20.968;2022-08-03T00:12:56;6.37;;;6.00;;
17199;SDS011;8716;52.268;20.968;2022-08-03T00:15:24;4.37;;;3.90;;
17199;SDS011;8716;52.268;20.968;2022-08-03T00:17:52;4.83;;;4.53;;
17199;SDS011;8716;52.268;20.968;2022-08-03T00:20:20;4.83;;;4.53;;
17199;SDS011;8716;52.268;20.968;2022-08-03T00:22:49;3.63;;;3.43;;
17199;SDS011;8716;52.268;20.968;2022-08-03T00:25:19;4.73;;;4.43;;
17199;SDS011;8716;52.268;20.968;2022-08-03T00:27:49;5.20;;;4.90;;
17199;SDS011;8716;52.268;20.968;2022-08-03T00:30:17;4.47;;;4.17;;
17199;SDS011;8716;52.268;20.968;2022-08-03T00:32:45;4.10;;;3.90;;
17199;SDS011;8716;52.268;20.968;2022-08-03T00:35:13;3.90;;;3.70;;
17199;SDS011;8716;52.268;20.968;2022-08-03T00:38:01;3.77;;;3.57;;
17199;SDS011;8716;52.268;20.968;2022-08-03T00:40:30;3.30;;;3.10;;
17199;SDS011;8716;52.268;20.968;2022-08-03T00:43:00;3.43;;;3.23;;
17199;SDS011;8716;52.268;20.968;2022-08-03T00:45:29;8.57;;;4.50;;
17199;SDS011;8716;52.268;20.968;2022-08-03T00:47:59;4.63;;;4.33;;
17199;SDS011;8716;52.268;20.968;2022-08-03T00:50:27;5.63;;;4.57;;
17199;SDS011;8716;52.268;20.968;2022-08-03T00:52:57;3.73;;;3.53;;
17199;SDS011;8716;52.268;20.968;2022-08-03T00:55:25;3.73;;;3.53;;
17199;SDS011;8716;52.268;20.968;2022-08-03T00:57:54;3.37;;;3.17;;
17199;SDS011;8716;52.268;20.968;2022-08-03T01:00:26;3.60;;;3.40;;
17199;SDS011;8716;52.268;20.968;2022-08-03T01:02:54;3.80;;;3.60;;
17199;SDS011;8716;52.268;20.968;2022-08-03T01:05:23;4.50;;;4.20;;
17199;SDS011;8716;52.268;20.968;2022-08-03T01:07:57;7.30;;;5.63;;
17199;SDS011;8716;52.268;20.968;2022-08-03T01:10:31;3.60;;;3.20;;
17199;SDS011;8716;52.268;20.968;2022-08-03T01:13:08;4.80;;;4.50;;
17199;SDS011;8716;52.268;20.968;2022-08-03T01:16:08;4.53;;;4.10;;
17199;SDS011;8716;52.268;20.968;2022-08-03T01:18:44;3.80;;;3.60;;
17199;SDS011;8716;52.268;20.968;2022-08-03T01:21:23;4.60;;;4.30;;
17199;SDS011;8716;52.268;20.968;2022-08-03T01:23:58;5.03;;;4.73;;
17199;SDS011;8716;52.268;20.968;2022-08-03T01:26:53;6.30;;;4.17;;
17199;SDS011;8716;52.268;20.968;2022-08-03T01:29:49;6.23;;;4.80;;
17199;SDS011;8716;52.268;20.968;2022-08-03T01:32:24;4.67;;;4.37;;
17199;SDS011;8716;52.268;20.968;2022-08-03T01:35:18;5.27;;;5.00;;
17199;SDS011;8716;52.268;20.968;2022-08-03T01:37:55;5.10;;;3.33;;
17199;SDS011;8716;52.268;20.968;2022-08-03T01:40:26;5.53;;;5.20;;
17199;SDS011;8716;52.268;20.968;2022-08-03T01:42:56;4.70;;;4.40;;
17199;SDS011;8716;52.268;20.968;2022-08-03T01:45:28;3.87;;;3.60;;
17199;SDS011;8716;52.268;20.968;2022-08-03T01:47:59;3.80;;;3.60;;
17199;SDS011;8716;52.268;20.968;2022-08-03T01:50:29;4.63;;;4.33;;
17199;SDS011;8716;52.268;20.968;2022-08-03T01:53:01;3.77;;;3.57;;
17199;SDS011;8716;52.268;20.968;2022-08-03T01:55:30;5.00;;;4.70;;
17199;SDS011;8716;52.268;20.968;2022-08-03T01:58:01;3.77;;;3.57;;
17199;SDS011;8716;52.268;20.968;2022-08-03T02:00:33;5.50;;;5.20;;
17199;SDS011;8716;52.268;20.968;2022-08-03T02:03:03;4.60;;;4.30;;
17199;SDS011;8716;52.268;20.968;2022-08-03T02:05:33;5.00;;;4.73;;
17199;SDS011;8716;52.268;20.968;2022-08-03T02:08:02;4.93;;;4.60;;
17199;SDS011;8716;52.268;20.968;2022-08-03T02:10:34;4.23;;;3.93;;
17199;SDS011;8716;52.268;20.968;2022-08-03T02:13:04;4.80;;;4.50;;
17199;SDS011;8716;52.268;20.968;2022-08-03T02:15:36;9.10;;;4.30;;
17199;SDS011;8716;52.268;20.968;2022-08-03T02:18:08;3.60;;;3.40;;
17199;SDS011;8716;52.268;20.968;2022-08-03T02:20:40;4.53;;;4.10;;
17199;SDS011;8716;52.268;20.968;2022-08-03T02:23:10;4.33;;;4.03;;
17199;SDS011;8716;52.268;20.968;2022-08-03T02:25:40;6.37;;;4.60;;
17199;SDS011;8716;52.268;20.968;2022-08-03T02:28:13;3.73;;;3.53;;
17199;SDS011;8716;52.268;20.968;2022-08-03T02:30:45;3.80;;;3.60;;
17199;SDS011;8716;52.268;20.968;2022-08-03T02:33:22;3.60;;;3.40;;
17199;SDS011;8716;52.268;20.968;2022-08-03T02:35:53;5.00;;;4.17;;
17199;SDS011;8716;52.268;20.968;2022-08-03T02:38:25;4.60;;;4.20;;
17199;SDS011;8716;52.268;20.968;2022-08-03T02:40:57;3.53;;;3.33;;
17199;SDS011;8716;52.268;20.968;2022-08-03T02:43:27;5.23;;;4.97;;
17199;SDS011;8716;52.268;20.968;2022-08-03T02:46:19;6.47;;;6.07;;
17199;SDS011;8716;52.268;20.968;2022-08-03T02:48:51;5.17;;;4.87;;
17199;SDS011;8716;52.268;20.968;2022-08-03T02:51:21;5.10;;;4.70;;
17199;SDS011;8716;52.268;20.968;2022-08-03T02:53:51;4.33;;;4.10;;
17199;SDS011;8716;52.268;20.968;2022-08-03T02:56:21;4.10;;;3.90;;
17199;SDS011;8716;52.268;20.968;2022-08-03T02:58:54;4.07;;;3.87;;
17199;SDS011;8716;52.268;20.968;2022-08-03T03:01:28;5.00;;;4.70;;
17199;SDS011;8716;52.268;20.968;2022-08-03T03:03:58;5.70;;;4.27;;
17199;SDS011;8716;52.268;20.968;2022-08-03T03:06:27;3.80;;;3.60;;
17199;SDS011;8716;52.268;20.968;2022-08-03T03:08:57;3.60;;;3.40;;
17199;SDS011;8716;52.268;20.968;2022-08-03T03:11:26;4.03;;;3.80;;
17199;SDS011;8716;52.268;20.968;2022-08-03T03:13:55;4.17;;;3.23;;
17199;SDS011;8716;52.268;20.968;2022-08-03T03:16:24;4.80;;;4.50;;
17199;SDS011;8716;52.268;20.968;2022-08-03T03:18:56;4.53;;;4.10;;
17199;SDS011;8716;52.268;20.968;2022-08-03T03:21:24;4.63;;;4.33;;
17199;SDS011;8716;52.268;20.968;2022-08-03T03:23:54;4.53;;;4.23;;
17199;SDS011;8716;52.268;20.968;2022-08-03T03:26:22;4.93;;;4.63;;
17199;SDS011;8716;52.268;20.968;2022-08-03T03:28:50;4.77;;;4.47;;
17199;SDS011;8716;52.268;20.968;2022-08-03T03:31:19;3.20;;;3.00;;
17199;SDS011;8716;52.268;20.968;2022-08-03T03:33:47;3.77;;;3.60;;
17199;SDS011;8716;52.268;20.968;2022-08-03T03:36:16;5.63;;;5.33;;
17199;SDS011;8716;52.268;20.968;2022-08-03T03:38:45;4.13;;;3.90;;
17199;SDS011;8716;52.268;20.968;2022-08-03T03:41:13;4.10;;;3.90;;
17199;SDS011;8716;52.268;20.968;2022-08-03T03:43:41;3.93;;;3.73;;
17199;SDS011;8716;52.268;20.968;2022-08-03T03:46:10;4.60;;;4.30;;
17199;SDS011;8716;52.268;20.968;2022-08-03T03:48:39;3.40;;;3.20;;
17199;SDS011;8716;52.268;20.968;2022-08-03T03:51:07;4.30;;;4.03;;
17199;SDS011;8716;52.268;20.968;2022-08-03T03:53:37;4.03;;;3.83;;
17199;SDS011;8716;52.268;20.968;2022-08-03T03:56:06;4.17;;;3.93;;
17199;SDS011;8716;52.268;20.968;2022-08-03T03:58:37;4.53;;;4.23;;
17199;SDS011;8716;52.268;20.968;2022-08-03T04:01:05;7.30;;;5.10;;
17199;SDS011;8716;52.268;20.968;2022-08-03T04:03:34;3.93;;;3.73;;
17199;SDS011;8716;52.268;20.968;2022-08-03T04:06:02;4.10;;;3.87;;
17199;SDS011;8716;52.268;20.968;2022-08-03T04:08:49;5.47;;;5.17;;
17199;SDS011;8716;52.268;20.968;2022-08-03T04:11:35;4.93;;;4.63;;
17199;SDS011;8716;52.268;20.968;2022-08-03T04:14:07;4.33;;;4.03;;
17199;SDS011;8716;52.268;20.968;2022-08-03T04:16:39;4.60;;;4.30;;
17199;SDS011;8716;52.268;20.968;2022-08-03T04:19:10;2.73;;;2.53;;
17199;SDS011;8716;52.268;20.968;2022-08-03T04:21:47;4.87;;;4.33;;
17199;SDS011;8716;52.268;20.968;2022-08-03T04:24:24;4.27;;;2.90;;
17199;SDS011;8716;52.268;20.968;2022-08-03T04:26:55;3.90;;;3.73;;
17199;SDS011;8716;52.268;20.968;2022-08-03T04:29:25;5.10;;;4.80;;
17199;SDS011;8716;52.268;20.968;2022-08-03T04:31:59;7.67;;;7.27;;
17199;SDS011;8716;52.268;20.968;2022-08-03T04:34:28;6.33;;;4.53;;
17199;SDS011;8716;52.268;20.968;2022-08-03T04:36:58;4.80;;;4.50;;
17199;SDS011;8716;52.268;20.968;2022-08-03T04:39:30;8.00;;;5.50;;
17199;SDS011;8716;52.268;20.968;2022-08-03T04:42:03;4.93;;;4.63;;
17199;SDS011;8716;52.268;20.968;2022-08-03T04:44:35;5.03;;;4.40;;
17199;SDS011;8716;52.268;20.968;2022-08-03T04:47:05;5.40;;;5.10;;
17199;SDS011;8716;52.268;20.968;2022-08-03T04:49:35;5.43;;;5.13;;
17199;SDS011;8716;52.268;20.968;2022-08-03T04:52:04;3.70;;;3.50;;
17199;SDS011;8716;52.268;20.968;2022-08-03T04:54:40;5.97;;;5.70;;
17199;SDS011;8716;52.268;20.968;2022-08-03T04:57:16;5.80;;;4.87;;
17199;SDS011;8716;52.268;20.968;2022-08-03T04:59:48;4.90;;;4.60;;
17199;SDS011;8716;52.268;20.968;2022-08-03T05:02:27;8.40;;;4.17;;
17199;SDS011;8716;52.268;20.968;2022-08-03T05:04:56;4.77;;;4.47;;
17199;SDS011;8716;52.268;20.968;2022-08-03T05:07:24;4.80;;;4.50;;
17199;SDS011;8716;52.268;20.968;2022-08-03T05:10:04;5.97;;;5.67;;
17199;SDS011;8716;52.268;20.968;2022-08-03T05:12:42;5.50;;;5.20;;
17199;SDS011;8716;52.268;20.968;2022-08-03T05:15:14;7.63;;;7.27;;
17199;SDS011;8716;52.268;20.968;2022-08-03T05:17:42;5.70;;;5.40;;
17199;SDS011;8716;52.268;20.968;2022-08-03T05:20:11;7.37;;;6.97;;
17199;SDS011;8716;52.268;20.968;2022-08-03T05:22:44;5.97;;;5.67;;
17199;SDS011;8716;52.268;20.968;2022-08-03T05:25:13;5.83;;;5.53;;
17199;SDS011;8716;52.268;20.968;2022-08-03T05:27:45;3.70;;;3.50;;
17199;SDS011;8716;52.268;20.968;2022-08-03T05:30:14;4.00;;;3.80;;
17199;SDS011;8716;52.268;20.968;2022-08-03T05:32:59;4.77;;;4.47;;
17199;SDS011;8716;52.268;20.968;2022-08-03T05:35:28;4.87;;;4.57;;
17199;SDS011;8716;52.268;20.968;2022-08-03T05:38:17;4.77;;;4.50;;
17199;SDS011;8716;52.268;20.968;2022-08-03T05:41:01;5.60;;;5.33;;
17199;SDS011;8716;52.268;20.968;2022-08-03T05:43:49;9.90;;;7.17;;
17199;SDS011;8716;52.268;20.968;2022-08-03T05:46:17;5.17;;;4.87;;
17199;SDS011;8716;52.268;20.968;2022-08-03T05:48:46;7.40;;;7.00;;
17199;SDS011;8716;52.268;20.968;2022-08-03T05:51:15;6.00;;;5.70;;
17199;SDS011;8716;52.268;20.968;2022-08-03T05:53:43;10.13;;;6.20;;
17199;SDS011;8716;52.268;20.968;2022-08-03T05:56:12;6.77;;;6.37;;
17199;SDS011;8716;52.268;20.968;2022-08-03T05:58:43;11.03;;;7.40;;
17199;SDS011;8716;52.268;20.968;2022-08-03T06:01:12;9.77;;;8.07;;
17199;SDS011;8716;52.268;20.968;2022-08-03T06:03:40;5.83;;;5.53;;
17199;SDS011;8716;52.268;20.968;2022-08-03T06:06:11;6.47;;;6.07;;
17199;SDS011;8716;52.268;20.968;2022-08-03T06:08:40;8.90;;;8.40;;
17199;SDS011;8716;52.268;20.968;2022-08-03T06:11:09;8.50;;;8.03;;
17199;SDS011;8716;52.268;20.968;2022-08-03T06:13:39;7.50;;;7.10;;
17199;SDS011;8716;52.268;20.968;2022-08-03T06:16:07;8.50;;;8.03;;
17199;SDS011;8716;52.268;20.968;2022-08-03T06:18:36;12.30;;;10.60;;
17199;SDS011;8716;52.268;20.968;2022-08-03T06:21:04;8.00;;;7.60;;
17199;SDS011;8716;52.268;20.968;2022-08-03T06:23:42;7.17;;;6.77;;
17199;SDS011;8716;52.268;20.968;2022-08-03T06:26:21;6.60;;;6.17;;
17199;SDS011;8716;52.268;20.968;2022-08-03T06:28:51;8.83;;;8.33;;
17199;SDS011;8716;52.268;20.968;2022-08-03T06:31:21;9.03;;;8.53;;
17199;SDS011;8716;52.268;20.968;2022-08-03T06:33:59;7.67;;;7.30;;
17199;SDS011;8716;52.268;20.968;2022-08-03T06:36:50;8.80;;;8.30;;
17199;SDS011;8716;52.268;20.968;2022-08-03T06:39:27;11.97;;;11.00;;
17199;SDS011;8716;52.268;20.968;2022-08-03T06:41:55;6.77;;;6.37;;
17199;SDS011;8716;52.268;20.968;2022-08-03T06:44:25;7.93;;;6.23;;
17199;SDS011;8716;52.268;20.968;2022-08-03T06:46:56;8.93;;;7.60;;
17199;SDS011;8716;52.268;20.968;2022-08-03T06:49:24;8.50;;;8.10;;
17199;SDS011;8716;52.268;20.968;2022-08-03T06:51:52;6.00;;;5.70;;
17199;SDS011;8716;52.268;20.968;2022-08-03T06:54:35;10.57;;;8.20;;
17199;SDS011;8716;52.268;20.968;2022-08-03T06:57:03;7.10;;;6.70;;
17199;SDS011;8716;52.268;20.968;2022-08-03T06:59:35;10.80;;;7.90;;
17199;SDS011;8716;52.268;20.968;2022-08-03T07:02:23;6.87;;;6.47;;
17199;SDS011;8716;52.268;20.968;2022-08-03T07:04:53;11.37;;;8.57;;
17199;SDS011;8716;52.268;20.968;2022-08-03T07:07:22;11.63;;;11.03;;
17199;SDS011;8716;52.268;20.968;2022-08-03T07:09:50;16.83;;;15.97;;
17199;SDS011;8716;52.268;20.968;2022-08-03T07:12:23;10.77;;;9.67;;
17199;SDS011;8716;52.268;20.968;2022-08-03T07:14:53;8.83;;;8.33;;
17199;SDS011;8716;52.268;20.968;2022-08-03T07:17:27;18.17;;;12.47;;
17199;SDS011;8716;52.268;20.968;2022-08-03T07:19:57;21.43;;;18.13;;
17199;SDS011;8716;52.268;20.968;2022-08-03T07:22:25;16.53;;;15.37;;
17199;SDS011;8716;52.268;20.968;2022-08-03T07:24:54;15.03;;;13.20;;
17199;SDS011;8716;52.268;20.968;2022-08-03T07:27:22;18.73;;;14.40;;
17199;SDS011;8716;52.268;20.968;2022-08-03T07:29:53;13.07;;;8.97;;
17199;SDS011;8716;52.268;20.968;2022-08-03T07:32:22;7.93;;;7.53;;
17199;SDS011;8716;52.268;20.968;2022-08-03T07:34:52;13.03;;;8.53;;
17199;SDS011;8716;52.268;20.968;2022-08-03T07:37:26;14.23;;;12.87;;
17199;SDS011;8716;52.268;20.968;2022-08-03T07:39:54;10.83;;;10.23;;
17199;SDS011;8716;52.268;20.968;2022-08-03T07:42:22;10.30;;;8.63;;
17199;SDS011;8716;52.268;20.968;2022-08-03T07:44:51;11.90;;;9.73;;
17199;SDS011;8716;52.268;20.968;2022-08-03T07:47:20;15.73;;;12.80;;
17199;SDS011;8716;52.268;20.968;2022-08-03T07:50:00;13.57;;;11.67;;
17199;SDS011;8716;52.268;20.968;2022-08-03T07:52:30;11.27;;;10.67;;
17199;SDS011;8716;52.268;20.968;2022-08-03T07:55:19;12.23;;;11.50;;
17199;SDS011;8716;52.268;20.968;2022-08-03T07:57:58;15.87;;;15.07;;
17199;SDS011;8716;52.268;20.968;2022-08-03T08:00:33;11.60;;;11.00;;
17199;SDS011;8716;52.268;20.968;2022-08-03T08:03:02;10.30;;;9.80;;
17199;SDS011;8716;52.268;20.968;2022-08-03T08:05:31;8.77;;;8.27;;
17199;SDS011;8716;52.268;20.968;2022-08-03T08:08:00;11.40;;;10.80;;
17199;SDS011;8716;52.268;20.968;2022-08-03T08:10:28;9.97;;;8.80;;
17199;SDS011;8716;52.268;20.968;2022-08-03T08:12:58;9.20;;;8.70;;
17199;SDS011;8716;52.268;20.968;2022-08-03T08:15:27;9.33;;;7.50;;
17199;SDS011;8716;52.268;20.968;2022-08-03T08:17:56;9.23;;;5.77;;
17199;SDS011;8716;52.268;20.968;2022-08-03T08:20:28;5.30;;;5.00;;
17199;SDS011;8716;52.268;20.968;2022-08-03T08:23:01;10.00;;;7.87;;
17199;SDS011;8716;52.268;20.968;2022-08-03T08:25:51;7.13;;;6.27;;
17199;SDS011;8716;52.268;20.968;2022-08-03T08:28:22;6.83;;;6.43;;
17199;SDS011;8716;52.268;20.968;2022-08-03T08:30:58;6.70;;;6.30;;
17199;SDS011;8716;52.268;20.968;2022-08-03T08:33:26;7.23;;;6.83;;
17199;SDS011;8716;52.268;20.968;2022-08-03T08:36:16;8.07;;;7.67;;
17199;SDS011;8716;52.268;20.968;2022-08-03T08:38:44;5.90;;;5.60;;
17199;SDS011;8716;52.268;20.968;2022-08-03T08:41:13;6.47;;;6.07;;
17199;SDS011;8716;52.268;20.968;2022-08-03T08:43:41;7.30;;;4.10;;
17199;SDS011;8716;52.268;20.968;2022-08-03T08:46:10;9.60;;;5.07;;
17199;SDS011;8716;52.268;20.968;2022-08-03T08:48:49;6.80;;;6.40;;
17199;SDS011;8716;52.268;20.968;2022-08-03T08:51:20;4.90;;;4.60;;
17199;SDS011;8716;52.268;20.968;2022-08-03T08:54:09;5.00;;;4.50;;
17199;SDS011;8716;52.268;20.968;2022-08-03T08:56:41;5.53;;;5.23;;
17199;SDS011;8716;52.268;20.968;2022-08-03T08:59:10;9.50;;;7.13;;
17199;SDS011;8716;52.268;20.968;2022-08-03T09:01:38;8.83;;;6.67;;
17199;SDS011;8716;52.268;20.968;2022-08-03T09:04:06;5.20;;;4.90;;
17199;SDS011;8716;52.268;20.968;2022-08-03T09:06:37;5.50;;;4.80;;
17199;SDS011;8716;52.268;20.968;2022-08-03T09:09:05;6.37;;;6.00;;
17199;SDS011;8716;52.268;20.968;2022-08-03T09:11:33;6.70;;;4.73;;
17199;SDS011;8716;52.268;20.968;2022-08-03T09:14:22;7.47;;;7.10;;
17199;SDS011;8716;52.268;20.968;2022-08-03T09:17:04;4.33;;;4.07;;
17199;SDS011;8716;52.268;20.968;2022-08-03T09:19:42;7.57;;;7.17;;
17199;SDS011;8716;52.268;20.968;2022-08-03T09:22:30;7.07;;;6.67;;
17199;SDS011;8716;52.268;20.968;2022-08-03T09:25:01;6.13;;;5.83;;
17199;SDS011;8716;52.268;20.968;2022-08-03T09:27:49;7.87;;;7.47;;
17199;SDS011;8716;52.268;20.968;2022-08-03T09:30:18;6.00;;;5.70;;
17199;SDS011;8716;52.268;20.968;2022-08-03T09:33:00;5.40;;;5.10;;
17199;SDS011;8716;52.268;20.968;2022-08-03T09:35:29;6.73;;;6.33;;
17199;SDS011;8716;52.268;20.968;2022-08-03T09:38:19;4.50;;;4.17;;
17199;SDS011;8716;52.268;20.968;2022-08-03T09:40:52;4.50;;;4.20;;
17199;SDS011;8716;52.268;20.968;2022-08-03T09:43:28;4.03;;;3.83;;
17199;SDS011;8716;52.268;20.968;2022-08-03T09:46:12;6.03;;;5.73;;
17199;SDS011;8716;52.268;20.968;2022-08-03T09:48:40;6.77;;;6.37;;
17199;SDS011;8716;52.268;20.968;2022-08-03T09:51:09;5.13;;;4.83;;
17199;SDS011;8716;52.268;20.968;2022-08-03T09:54:00;5.90;;;5.60;;
17199;SDS011;8716;52.268;20.968;2022-08-03T09:56:40;5.40;;;5.10;;
17199;SDS011;8716;52.268;20.968;2022-08-03T09:59:10;5.10;;;4.80;;
17199;SDS011;8716;52.268;20.968;2022-08-03T10:01:40;4.90;;;4.60;;
17199;SDS011;8716;52.268;20.968;2022-08-03T10:04:11;6.50;;;5.30;;
17199;SDS011;8716;52.268;20.968;2022-08-03T10:06:42;5.33;;;5.03;;
17199;SDS011;8716;52.268;20.968;2022-08-03T10:09:13;5.13;;;4.83;;
17199;SDS011;8716;52.268;20.968;2022-08-03T10:11:42;5.60;;;5.30;;
17199;SDS011;8716;52.268;20.968;2022-08-03T10:14:12;5.37;;;5.07;;
17199;SDS011;8716;52.268;20.968;2022-08-03T10:16:45;6.07;;;5.77;;
17199;SDS011;8716;52.268;20.968;2022-08-03T10:19:14;6.73;;;6.33;;
17199;SDS011;8716;52.268;20.968;2022-08-03T10:21:45;3.50;;;3.30;;
17199;SDS011;8716;52.268;20.968;2022-08-03T10:24:19;7.90;;;7.40;;
17199;SDS011;8716;52.268;20.968;2022-08-03T10:26:52;6.03;;;5.70;;
17199;SDS011;8716;52.268;20.968;2022-08-03T10:29:27;4.50;;;4.20;;
17199;SDS011;8716;52.268;20.968;2022-08-03T10:31:57;4.97;;;4.57;;
17199;SDS011;8716;52.268;20.968;2022-08-03T10:34:26;4.57;;;4.27;;
17199;SDS011;8716;52.268;20.968;2022-08-03T10:37:00;4.87;;;4.57;;
17199;SDS011;8716;52.268;20.968;2022-08-03T10:39:35;6.50;;;6.10;;
17199;SDS011;8716;52.268;20.968;2022-08-03T10:42:03;4.70;;;4.40;;
17199;SDS011;8716;52.268;20.968;2022-08-03T10:44:40;5.13;;;4.73;;
17199;SDS011;8716;52.268;20.968;2022-08-03T10:47:09;6.07;;;5.77;;
17199;SDS011;8716;52.268;20.968;2022-08-03T10:49:37;6.57;;;6.17;;
17199;SDS011;8716;52.268;20.968;2022-08-03T10:52:08;4.97;;;4.67;;
17199;SDS011;8716;52.268;20.968;2022-08-03T10:54:57;4.10;;;3.70;;
17199;SDS011;8716;52.268;20.968;2022-08-03T10:57:47;4.73;;;4.43;;
17199;SDS011;8716;52.268;20.968;2022-08-03T11:00:24;5.73;;;5.43;;
17199;SDS011;8716;52.268;20.968;2022-08-03T11:03:00;4.50;;;4.20;;
17199;SDS011;8716;52.268;20.968;2022-08-03T11:05:30;4.27;;;4.00;;
17199;SDS011;8716;52.268;20.968;2022-08-03T11:08:20;4.47;;;4.17;;
17199;SDS011;8716;52.268;20.968;2022-08-03T11:10:55;3.23;;;3.03;;
17199;SDS011;8716;52.268;20.968;2022-08-03T11:13:26;6.23;;;5.90;;
17199;SDS011;8716;52.268;20.968;2022-08-03T11:15:58;5.90;;;5.60;;
17199;SDS011;8716;52.268;20.968;2022-08-03T11:18:32;3.43;;;3.23;;
17199;SDS011;8716;52.268;20.968;2022-08-03T11:21:01;5.13;;;4.83;;
17199;SDS011;8716;52.268;20.968;2022-08-03T11:23:39;3.60;;;3.40;;
17199;SDS011;8716;52.268;20.968;2022-08-03T11:26:32;5.03;;;4.73;;
17199;SDS011;8716;52.268;20.968;2022-08-03T11:31:53;4.63;;;3.70;;
17199;SDS011;8716;52.268;20.968;2022-08-03T11:34:22;4.90;;;4.60;;
17199;SDS011;8716;52.268;20.968;2022-08-03T11:39:51;5.30;;;5.00;;
17199;SDS011;8716;52.268;20.968;2022-08-03T11:42:39;5.73;;;5.43;;
17199;SDS011;8716;52.268;20.968;2022-08-03T11:45:09;4.50;;;4.20;;
17199;SDS011;8716;52.268;20.968;2022-08-03T11:47:38;3.30;;;3.10;;
17199;SDS011;8716;52.268;20.968;2022-08-03T11:50:17;6.43;;;5.00;;
17199;SDS011;8716;52.268;20.968;2022-08-03T11:52:49;6.00;;;5.70;;
17199;SDS011;8716;52.268;20.968;2022-08-03T11:55:19;6.60;;;6.20;;
17199;SDS011;8716;52.268;20.968;2022-08-03T11:57:49;5.03;;;4.73;;
17199;SDS011;8716;52.268;20.968;2022-08-03T12:00:37;4.13;;;3.90;;
17199;SDS011;8716;52.268;20.968;2022-08-03T12:03:06;4.57;;;4.27;;
17199;SDS011;8716;52.268;20.968;2022-08-03T12:05:37;7.23;;;6.83;;
17199;SDS011;8716;52.268;20.968;2022-08-03T12:08:20;5.33;;;5.03;;
17199;SDS011;8716;52.268;20.968;2022-08-03T12:11:00;3.80;;;3.60;;
17199;SDS011;8716;52.268;20.968;2022-08-03T12:13:36;4.70;;;4.40;;
17199;SDS011;8716;52.268;20.968;2022-08-03T12:16:26;4.60;;;4.30;;
17199;SDS011;8716;52.268;20.968;2022-08-03T12:18:55;4.73;;;4.43;;
17199;SDS011;8716;52.268;20.968;2022-08-03T12:21:24;5.50;;;5.20;;
17199;SDS011;8716;52.268;20.968;2022-08-03T12:23:55;4.77;;;4.47;;
17199;SDS011;8716;52.268;20.968;2022-08-03T12:26:24;3.90;;;3.70;;
17199;SDS011;8716;52.268;20.968;2022-08-03T12:28:54;5.03;;;4.73;;
17199;SDS011;8716;52.268;20.968;2022-08-03T12:31:23;3.20;;;3.00;;
17199;SDS011;8716;52.268;20.968;2022-08-03T12:33:56;4.17;;;3.93;;
17199;SDS011;8716;52.268;20.968;2022-08-03T12:36:29;6.40;;;6.00;;
17199;SDS011;8716;52.268;20.968;2022-08-03T12:38:59;4.60;;;4.30;;
17199;SDS011;8716;52.268;20.968;2022-08-03T12:41:29;4.70;;;4.40;;
17199;SDS011;8716;52.268;20.968;2022-08-03T12:44:01;5.47;;;5.17;;
17199;SDS011;8716;52.268;20.968;2022-08-03T12:46:30;4.50;;;4.20;;
17199;SDS011;8716;52.268;20.968;2022-08-03T12:49:04;4.80;;;4.23;;
17199;SDS011;8716;52.268;20.968;2022-08-03T12:51:34;4.53;;;4.20;;
17199;SDS011;8716;52.268;20.968;2022-08-03T12:54:04;3.57;;;3.37;;
17199;SDS011;8716;52.268;20.968;2022-08-03T12:56:34;4.13;;;3.90;;
17199;SDS011;8716;52.268;20.968;2022-08-03T12:59:24;4.30;;;3.87;;
17199;SDS011;8716;52.268;20.968;2022-08-03T13:02:03;4.47;;;4.17;;
17199;SDS011;8716;52.268;20.968;2022-08-03T13:04:35;5.47;;;5.17;;
17199;SDS011;8716;52.268;20.968;2022-08-03T13:07:03;5.50;;;5.20;;
17199;SDS011;8716;52.268;20.968;2022-08-03T13:09:40;4.13;;;3.90;;
17199;SDS011;8716;52.268;20.968;2022-08-03T13:12:11;4.47;;;4.23;;
17199;SDS011;8716;52.268;20.968;2022-08-03T13:14:43;5.50;;;4.50;;
17199;SDS011;8716;52.268;20.968;2022-08-03T13:17:12;4.30;;;3.90;;
17199;SDS011;8716;52.268;20.968;2022-08-03T13:19:42;4.80;;;4.33;;
17199;SDS011;8716;52.268;20.968;2022-08-03T13:22:11;4.47;;;4.27;;
17199;SDS011;8716;52.268;20.968;2022-08-03T13:24:47;3.73;;;3.53;;
17199;SDS011;8716;52.268;20.968;2022-08-03T13:27:17;5.33;;;5.03;;
17199;SDS011;8716;52.268;20.968;2022-08-03T13:30:08;4.37;;;4.07;;
17199;SDS011;8716;52.268;20.968;2022-08-03T13:32:36;3.90;;;3.70;;
17199;SDS011;8716;52.268;20.968;2022-08-03T13:35:05;4.03;;;3.83;;
17199;SDS011;8716;52.268;20.968;2022-08-03T13:37:34;3.70;;;3.50;;
17199;SDS011;8716;52.268;20.968;2022-08-03T13:40:03;4.00;;;3.77;;
17199;SDS011;8716;52.268;20.968;2022-08-03T13:42:37;3.20;;;3.00;;
17199;SDS011;8716;52.268;20.968;2022-08-03T13:45:05;4.50;;;4.20;;
17199;SDS011;8716;52.268;20.968;2022-08-03T13:47:35;4.43;;;4.17;;
17199;SDS011;8716;52.268;20.968;2022-08-03T13:50:04;3.20;;;3.00;;
17199;SDS011;8716;52.268;20.968;2022-08-03T13:52:33;3.50;;;3.30;;
17199;SDS011;8716;52.268;20.968;2022-08-03T13:55:02;15.50;;;5.00;;
17199;SDS011;8716;52.268;20.968;2022-08-03T13:57:31;4.73;;;4.00;;
17199;SDS011;8716;52.268;20.968;2022-08-03T14:00:20;4.17;;;3.93;;
17199;SDS011;8716;52.268;20.968;2022-08-03T14:03:00;3.23;;;3.03;;
17199;SDS011;8716;52.268;20.968;2022-08-03T14:05:39;3.20;;;3.00;;
17199;SDS011;8716;52.268;20.968;2022-08-03T14:08:08;3.10;;;2.90;;
17199;SDS011;8716;52.268;20.968;2022-08-03T14:10:39;3.17;;;2.97;;
17199;SDS011;8716;52.268;20.968;2022-08-03T14:13:09;3.33;;;3.10;;
17199;SDS011;8716;52.268;20.968;2022-08-03T14:15:37;3.40;;;3.20;;
17199;SDS011;8716;52.268;20.968;2022-08-03T14:18:09;3.60;;;3.43;;
17199;SDS011;8716;52.268;20.968;2022-08-03T14:20:53;3.20;;;3.00;;
17199;SDS011;8716;52.268;20.968;2022-08-03T14:23:25;4.67;;;4.37;;
17199;SDS011;8716;52.268;20.968;2022-08-03T14:25:53;3.60;;;3.40;;
17199;SDS011;8716;52.268;20.968;2022-08-03T14:28:21;5.47;;;5.17;;
17199;SDS011;8716;52.268;20.968;2022-08-03T14:30:51;4.80;;;4.50;;
17199;SDS011;8716;52.268;20.968;2022-08-03T14:33:22;6.53;;;4.10;;
17199;SDS011;8716;52.268;20.968;2022-08-03T14:35:54;4.10;;;3.90;;
17199;SDS011;8716;52.268;20.968;2022-08-03T14:38:22;4.03;;;3.57;;
17199;SDS011;8716;52.268;20.968;2022-08-03T14:40:51;3.30;;;3.10;;
17199;SDS011;8716;52.268;20.968;2022-08-03T14:43:19;4.47;;;4.17;;
17199;SDS011;8716;52.268;20.968;2022-08-03T14:45:47;3.30;;;3.10;;
17199;SDS011;8716;52.268;20.968;2022-08-03T14:48:17;8.03;;;7.40;;
17199;SDS011;8716;52.268;20.968;2022-08-03T14:51:07;3.10;;;2.90;;
17199;SDS011;8716;52.268;20.968;2022-08-03T14:53:37;3.70;;;3.50;;
17199;SDS011;8716;52.268;20.968;2022-08-03T14:56:07;10.23;;;4.90;;
17199;SDS011;8716;52.268;20.968;2022-08-03T14:58:36;3.27;;;3.07;;
17199;SDS011;8716;52.268;20.968;2022-08-03T15:01:05;3.87;;;3.67;;
17199;SDS011;8716;52.268;20.968;2022-08-03T15:03:53;2.83;;;2.63;;
17199;SDS011;8716;52.268;20.968;2022-08-03T15:06:23;7.50;;;7.10;;
17199;SDS011;8716;52.268;20.968;2022-08-03T15:08:51;4.60;;;4.30;;
17199;SDS011;8716;52.268;20.968;2022-08-03T15:11:39;4.33;;;4.07;;
17199;SDS011;8716;52.268;20.968;2022-08-03T15:14:08;5.37;;;5.07;;
17199;SDS011;8716;52.268;20.968;2022-08-03T15:16:39;5.20;;;4.90;;
17199;SDS011;8716;52.268;20.968;2022-08-03T15:19:07;4.30;;;4.00;;
17199;SDS011;8716;52.268;20.968;2022-08-03T15:21:56;4.57;;;4.27;;
17199;SDS011;8716;52.268;20.968;2022-08-03T15:24:27;6.50;;;5.10;;
17199;SDS011;8716;52.268;20.968;2022-08-03T15:26:55;5.50;;;5.20;;
17199;SDS011;8716;52.268;20.968;2022-08-03T15:29:23;3.33;;;3.20;;